Latest Coastal Weather Observations for Port Hedland

IDW60701

Issued at 3:12 pm WST Sunday 1 February 2015 (issued every 10 minutes, with the page automatically refreshed every 10 minutes)

About coastal observations | Map of coastal stations | Coastal observations for WA | Marine services | Other Formats
Station Details ID: 004032 Name: PORT HEDLAND AIRPORT Lat: -20.37 Lon: 118.63 Height: 6.4 m
Data from the previous 72 hours. | See also: Recent months at Port Hedland
Date/Time
WST
Temp

°C
Wind Pressure Rain
since 9am
mm
Weather Cloud Vis
km
Sea
Height
m
Swell
Dir
 
Speed
knots
Gust
knots
hPa Trend Height
m
Period
s
Dir
01/03:00pm 33.2 NW 15 20 1008.4 R 0.0 Fine Mostly clear 30 - - - -
01/02:30pm 33.4 NW 14 20 1008.8 - 0.0 - Mostly clear 10 - - - -
01/02:00pm 33.7 WNW 13 16 1009.1 - 0.0 - Mostly clear 10 - - - -
01/01:30pm 34.1 NNW 14 17 1009.4 - 0.0 - Mostly clear 10 - - - -
01/01:00pm 33.3 NW 13 18 1009.6 - 0.0 - Mostly clear 10 - - - -
01/12:30pm 33.7 NNW 13 22 1009.7 - 0.0 - Mostly clear 10 - - - -
01/12:00pm 32.9 N 11 13 1009.9 - 0.0 - Mostly clear 10 - - - -
01/11:30am 33.7 NNW 11 16 1010.4 - 0.0 - Mostly clear 10 - - - -
01/11:00am 32.3 NW 11 15 1010.6 - 0.0 - Mostly clear 10 - - - -
01/10:30am 32.8 NW 11 16 1010.7 - 0.0 - Mostly clear 10 - - - -
01/10:00am 32.4 NW 11 16 1010.9 - 0.0 - Mostly clear 10 - - - -
01/09:30am 31.4 NNW 11 14 1010.9 - 0.0 - Mostly clear 10 - - - -
01/09:00am 30.8 NW 9 13 1010.9 F 0.0 Fine Partly cloudy 30 - - - -
01/08:30am 30.3 NW 6 9 1011.1 - 0.0 - Mostly clear 10 - - - -
01/08:00am 29.9 NW 8 11 1011.1 - 0.0 - Mostly clear 10 - - - -
01/06:30am 25.8 SW 4 5 1010.7 - 0.0 - Mostly clear 10 - - - -
01/06:00am 25.0 SW 3 4 1010.0 R 0.0 Fine Mostly clear 30 - - - -
01/05:30am 24.8 SW 4 6 1009.6 - 0.0 - - 10 - - - -
01/05:00am 25.2 WSW 1 5 1009.3 - 0.0 - - 10 - - - -
01/04:30am 25.2 WSW 3 5 1009.1 - 0.0 - Partly cloudy 10 - - - -
01/04:00am 25.5 WNW 6 7 1009.0 - 0.0 - - 10 - - - -
01/03:30am 26.2 WNW 7 8 1009.0 - 0.0 - - 10 - - - -
01/03:00am 25.9 WNW 6 7 1008.6 - 0.0 - - 10 - - - -
01/02:30am 26.6 WNW 7 9 1008.8 - 0.0 - - 10 - - - -
01/02:00am 26.9 NW 8 9 1008.8 - 0.0 - Partly cloudy 10 - - - -
01/01:30am 26.8 WNW 7 9 1008.9 - 0.0 - - 10 - - - -
01/01:00am 27.2 NW 10 14 1009.0 - 0.0 - - 10 - - - -
01/12:30am 26.9 NW 7 9 1009.2 - 0.0 - Partly cloudy 10 - - - -
01/12:00am 26.8 NW 7 8 1009.1 - 0.0 - - 10 - - - -
 
Date/Time
WST
Temp

°C
Wind Pressure Rain
since 9am
mm
Weather Cloud Vis
km
Sea
Height
m
Swell
Dir
 
Speed
knots
Gust
knots
hPa Trend Height
m
Period
s
Dir
31/11:30pm 26.9 NW 8 9 1009.2 - 0.0 - - 10 - - - -
31/11:00pm 26.5 NW 6 7 1009.5 - 0.0 - - 10 - - - -
31/10:30pm 27.1 NW 7 8 1009.6 - 0.0 - - 10 - - - -
31/10:00pm 27.3 WNW 7 8 1009.3 - 0.0 - - 10 - - - -
31/09:30pm 27.5 NW 8 9 1009.1 - 0.0 - - 10 - - - -
31/09:00pm 27.7 NW 8 9 1008.6 - 0.0 - - 10 - - - -
31/08:30pm 27.8 NW 8 9 1008.2 - 0.0 - - 10 - - - -
31/08:00pm 28.1 NNW 9 12 1008.0 - 0.0 - - 10 - - - -
31/07:30pm 28.4 NW 9 11 1007.9 - 0.0 - - 10 - - - -
31/07:00pm 28.8 NW 10 14 1007.6 - 0.0 - - 10 - - - -
31/06:30pm 29.3 NNW 12 15 1007.2 - 0.0 - - 10 - - - -
31/06:00pm 30.4 NNW 12 16 1006.9 - 0.0 - - 10 - - - -
31/05:30pm 30.8 NNW 13 17 1006.7 - 0.0 - - 10 - - - -
31/05:00pm 31.8 NNW 14 19 1006.5 - 0.0 - - 10 - - - -
31/04:30pm 32.2 NW 15 19 1006.2 - 0.0 - - 10 - - - -
31/04:00pm 32.4 NW 15 19 1006.2 - 0.0 - - 10 - - - -
31/03:30pm 33.1 NNW 15 19 1006.5 - 0.0 - - 10 - - - -
31/03:00pm 33.6 NNW 15 19 1006.4 - 0.0 - - 10 - - - -
31/02:30pm 33.0 NNW 15 19 1006.6 - 0.0 - - 10 - - - -
31/02:00pm 33.5 N 15 19 1006.9 - 0.0 - - 10 - - - -
31/01:30pm 33.3 N 14 20 1007.3 - 0.0 - - 10 - - - -
31/01:00pm 33.3 N 13 19 1007.8 - 0.0 - - 10 - - - -
31/12:30pm 32.3 N 13 17 1008.1 - 0.0 - - 10 - - - -
31/12:00pm 33.4 NNW 12 19 1008.1 - 0.0 - - 10 - - - -
31/11:30am 33.5 NW 11 19 1008.4 - 0.0 - - 10 - - - -
31/11:00am 33.7 NW 10 14 1008.6 - 0.0 - - 10 - - - -
31/10:30am 32.5 WNW 10 13 1008.8 - 0.0 - - 10 - - - -
31/10:00am 32.3 NW 8 12 1008.9 - 0.0 - - 10 - - - -
31/09:30am 31.8 NNW 8 13 1009.0 - 0.0 - - 10 - - - -
31/09:00am 30.1 NE 6 9 1009.3 - 0.0 - - 10 - - - -
31/08:30am 29.1 NNE 5 8 1009.4 - 0.0 - - 10 - - - -
31/08:00am 28.8 NW 2 4 1009.4 - 0.0 - - 10 - - - -
31/07:30am 28.4 SE 3 6 1009.2 - 0.0 - - 10 - - - -
31/07:00am 26.8 ESE 3 5 1009.1 - 0.0 - - 10 - - - -
31/06:30am 26.3 CALM 0 0 1008.6 - 0.0 - - 10 - - - -
31/06:00am 26.0 CALM 0 3 1008.2 - 0.0 - - 10 - - - -
31/05:30am 26.1 SSW 5 8 1007.9 - 0.0 - Partly cloudy 10 - - - -
31/05:00am 26.7 SSE 6 9 1008.0 - 0.0 - Partly cloudy 10 - - - -
31/04:30am 26.4 SSE 7 8 1008.0 - 0.0 - Partly cloudy 10 - - - -
31/04:00am 26.5 S 5 8 1007.8 - 0.0 - Partly cloudy 10 - - - -
31/03:30am 25.9 SW 4 5 1007.5 - 0.0 - Partly cloudy 10 - - - -
31/03:00am 25.6 WSW 6 6 1007.2 - 0.0 - - 10 - - - -
31/02:30am 26.3 WSW 7 9 1007.3 - 0.0 - Partly cloudy 10 - - - -
31/02:00am 26.5 WSW 6 7 1007.4 - 0.0 - Partly cloudy 10 - - - -
31/01:30am 26.7 W 8 10 1007.5 - 0.0 - - 10 - - - -
31/01:00am 27.0 W 10 12 1007.6 - 0.0 - Partly cloudy 10 - - - -
31/12:30am 27.2 W 10 14 1007.7 - 0.0 - Partly cloudy 10 - - - -
31/12:00am 27.4 WNW 11 15 1007.6 - 0.0 - - 10 - - - -
 
Date/Time
WST
Temp

°C
Wind Pressure Rain
since 9am
mm
Weather Cloud Vis
km
Sea
Height
m
Swell
Dir
 
Speed
knots
Gust
knots
hPa Trend Height
m
Period
s
Dir
30/11:30pm 27.5 WNW 12 15 1007.7 - 0.0 - - 10 - - - -
30/11:00pm 27.6 WNW 13 18 1007.6 - 0.0 - - 10 - - - -
30/10:30pm 27.8 WNW 13 17 1007.6 - 0.0 - - 10 - - - -
30/10:00pm 27.7 WNW 14 18 1007.4 - 0.0 - - 10 - - - -
30/09:30pm 27.7 NW 12 16 1007.1 - 0.0 - - 10 - - - -
30/09:00pm 28.0 NW 15 19 1006.8 - 0.0 - Cloudy 10 - - - -
30/08:30pm 27.9 NW 12 16 1006.6 - 0.0 - - 10 - - - -
30/08:00pm 28.0 NW 13 17 1006.2 - 0.0 - - 10 - - - -
30/07:30pm 28.1 NW 13 16 1005.9 - 0.0 - - 10 - - - -
30/07:00pm 28.3 NW 14 19 1005.6 - 0.0 - - 10 - - - -
30/06:30pm 28.9 NW 16 20 1005.2 - 0.0 - - 10 - - - -
30/06:00pm 29.8 NW 16 21 1004.8 - 0.0 - - 10 - - - -
30/05:30pm 30.5 NW 17 22 1004.7 - 0.0 - - 10 - - - -
30/05:00pm 31.0 NW 19 24 1004.7 - 0.0 - - 10 - - - -
30/04:30pm 31.3 NW 20 25 1004.7 - 0.0 - - 10 - - - -
30/04:00pm 32.7 NW 18 25 1004.8 - 0.0 - - 10 - - - -
30/03:30pm 32.3 NW 20 24 1004.9 - 0.0 - - 10 - - - -
30/03:00pm 32.2 NNW 19 24 1005.0 - 0.0 - - 10 - - - -
30/02:30pm 32.5 NW 18 23 1005.5 - 0.0 - - 10 - - - -
30/02:00pm 33.0 NW 17 21 1005.8 - 0.0 - - 10 - - - -
30/01:30pm 33.5 NW 16 21 1006.0 - 0.0 - - 10 - - - -
30/01:00pm 33.6 NW 16 19 1006.3 - 0.0 - - 10 - - - -
30/12:30pm 33.6 NW 14 19 1006.7 - 0.0 - - 10 - - - -
30/12:00pm 33.6 NW 14 18 1006.8 - 0.0 - - 10 - - - -
30/11:30am 34.1 NNW 13 18 1007.4 - 0.0 - - 10 - - - -
30/11:00am 33.6 NNW 12 16 1007.7 - 0.0 - - 10 - - - -
30/10:30am 33.2 NNW 11 15 1007.9 - 0.0 - - 10 - - - -
30/10:00am 32.5 NNW 12 16 1008.0 - 0.0 - - 10 - - - -
30/09:30am 32.1 WNW 7 9 1008.1 - 0.0 - - 10 - - - -
30/09:00am 31.0 WSW 8 11 1008.2 - 0.0 - Cloudy 10 - - - -
30/08:30am 30.3 WSW 9 12 1008.6 - 0.0 - Partly cloudy 10 - - - -
30/08:00am 29.3 WSW 8 11 1008.6 - 0.0 - - 10 - - - -
30/07:30am 28.5 WSW 8 12 1008.5 - 0.0 - - 10 - - - -
30/07:00am 27.4 SW 7 9 1008.3 - 0.0 - - 10 - - - -
30/06:30am 26.4 S 6 8 1008.2 - 0.0 - Partly cloudy 10 - - - -
30/06:00am 26.1 S 7 9 1007.8 - 0.0 - Cloudy 10 - - - -
30/05:30am 26.0 S 8 11 1007.5 - 0.0 - Partly cloudy 10 - - - -
30/05:00am 26.4 W 7 9 1006.6 - 0.0 - Partly cloudy 10 - - - -
30/04:30am 26.3 WNW 11 13 1006.0 - 0.0 - Partly cloudy 10 - - - -
30/04:00am 26.3 NW 11 14 1005.5 - 0.0 - - 10 - - - -
30/03:30am 26.3 NW 9 12 1005.6 - 0.0 - - 10 - - - -
30/03:00am 26.0 NW 9 11 1005.4 - 0.0 - - 10 - - - -
30/02:30am 25.9 WNW 9 11 1005.8 - 0.0 - - 10 - - - -
30/02:00am 25.3 WNW 7 8 1005.8 - 0.0 - - 10 - - - -
30/01:30am 24.8 NW 6 7 1006.0 - 0.0 - - 10 - - - -
30/01:00am 24.8 WNW 6 7 1006.6 - 0.0 - - 10 - - - -
30/12:30am 24.9 W 5 6 1006.7 - 0.0 - - 10 - - - -
30/12:00am 25.1 NNW 6 8 1006.6 - 0.0 - - 10 - - - -
 
Date/Time
WST
Temp

°C
Wind Pressure Rain
since 9am
mm
Weather Cloud Vis
km
Sea
Height
m
Swell
Dir
 
Speed
knots
Gust
knots
hPa Trend Height
m
Period
s
Dir
29/11:30pm 25.6 NW 3 5 1007.1 - 0.0 - - 10 - - - -
29/11:00pm 26.8 SSW 4 8 1008.1 - 0.0 - Partly cloudy 10 - - - -
29/10:30pm 27.1 S 8 11 1008.4 - 0.0 - Partly cloudy 10 - - - -
29/10:00pm 26.5 SW 8 10 1007.7 - 0.0 - Partly cloudy 10 - - - -
29/09:30pm 26.6 WSW 7 9 1007.3 - 0.0 - - 10 - - - -
29/09:00pm 27.2 WSW 8 10 1007.0 - 0.0 - - 10 - - - -
29/08:30pm 27.4 W 11 13 1006.7 - 0.0 - - 10 - - - -
29/08:00pm 27.5 WNW 12 15 1005.9 - 0.0 - - 10 - - - -
29/07:30pm 27.8 WNW 12 15 1005.6 - 0.0 - - 10 - - - -
29/07:00pm 27.9 WNW 12 15 1005.0 - 0.0 - - 10 - - - -
29/06:30pm 28.5 WNW 14 17 1004.7 - 0.0 - - 10 - - - -
29/06:00pm 29.6 WNW 14 18 1004.1 - 0.0 - - 10 - - - -
29/05:30pm 29.9 NW 16 20 1003.8 - 0.0 - - 10 - - - -
29/05:00pm 30.5 NW 18 23 1003.6 - 0.0 - - 10 - - - -
29/04:30pm 31.0 NW 17 23 1003.5 - 0.0 - - 10 - - - -
29/04:00pm 31.5 NW 17 23 1003.9 - 0.0 - - 10 - - - -
29/03:30pm 31.7 NW 16 22 1004.2 - 0.0 - - 10 - - - -

Other Formats:

Comma delimited format used in spreadsheet applications
http://www.bom.gov.au/fwo/IDW60701/IDW60701.94312.axf

JavaScript Object Notation format (JSON) in row-major order
http://www.bom.gov.au/fwo/IDW60701/IDW60701.94312.json